Main page
METAR-TAF:

METAR-TAF

Airports :

Eagle River Union Airport

Eagle River, Wisconsin, United States

latitude: 45-55-54N, longitude: 089-16-09W, elevation: 1643 ft

Current weather observation

The report was made 19 minutes ago, at 08:55 UTC
Calm wind
Temperature 27°F
Humidity 86%
Pressure 29.95 in. Hg
Visibility: 10 miles
Clear sky

METAR: KEGV 220855Z AUTO 00000KT 10SM CLR M03/M05 A2995 RMK AO2 T10301048

Time: 04:14 (09:14 UTC)


TAF: missing

Weather observations and forecasts of more than 4000 airports (METAR and TAF reports).

The available stations are represented by yellow and red dots on the map.

Hover mouse over dot to see the name of the station.

Then click to see weather observations and forecasts.

To change the map : click on the green buttons with a black cross to zoom in, on the green button with a dash to zoom out, or on the green arrows for adjacent maps.


METAR-TAF: